Time;durP1;ratioP1;P1;durP2;ratioP2;P2;SDS_P1;SDS_P2;PMS_P1;PMS_P2;Temp;Humidity;BMP_temperature;BMP_pressure;BME280_temperature;BME280_humidity;BME280_pressure;Samples;Min_cycle;Max_cycle;Signal;HPM_P1;HPM_P2
2022/03/05 00:00:40;;;;;;;24.52;15.57;;;;;;;2.74;56.40;100638.94;5037536;28;20953;-78
2022/03/05 00:03:05;;;;;;;25.67;15.77;;;;;;;2.74;56.51;100633.59;5035923;28;20553;-78
2022/03/05 00:05:31;;;;;;;24.10;14.90;;;;;;;2.70;56.76;100633.13;5036476;28;20570;-78
2022/03/05 00:07:56;;;;;;;25.50;15.32;;;;;;;2.70;56.35;100635.00;5037362;28;20449;-79
2022/03/05 00:10:22;;;;;;;25.47;15.67;;;;;;;2.69;56.59;100630.66;5037413;28;20407;-79
2022/03/05 00:12:48;;;;;;;27.23;16.23;;;;;;;2.67;56.41;100635.38;5067849;28;20402;-78
2022/03/05 00:15:14;;;;;;;23.98;15.13;;;;;;;2.65;57.06;100637.41;5037200;28;20432;-76
2022/03/05 00:17:39;;;;;;;23.10;15.35;;;;;;;2.61;57.53;100640.47;5069439;28;20412;-78
2022/03/05 00:20:06;;;;;;;24.07;15.30;;;;;;;2.58;57.58;100638.16;5052678;28;20435;-78
2022/03/05 00:22:32;;;;;;;23.67;15.30;;;;;;;2.54;57.72;100631.53;5031556;28;20408;-78
2022/03/05 00:24:57;;;;;;;26.77;15.70;;;;;;;2.44;57.83;100636.34;5034565;28;20402;-79
2022/03/05 00:27:23;;;;;;;23.87;15.03;;;;;;;2.38;57.53;100637.09;5037263;28;20503;-78
2022/03/05 00:29:49;;;;;;;23.33;14.10;;;;;;;2.33;57.93;100638.69;5037203;28;20426;-78
2022/03/05 00:32:14;;;;;;;25.07;15.37;;;;;;;2.34;57.73;100635.00;5051480;28;20508;-78
2022/03/05 00:34:39;;;;;;;23.43;14.63;;;;;;;2.36;57.99;100639.16;5037190;28;20453;-79
2022/03/05 00:37:05;;;;;;;24.53;14.67;;;;;;;2.31;57.99;100638.88;5036657;28;20417;-79
2022/03/05 00:39:31;;;;;;;24.02;14.95;;;;;;;2.33;58.21;100636.84;5032662;28;20400;-78
2022/03/05 00:41:57;;;;;;;25.23;15.30;;;;;;;2.34;58.18;100635.81;5033914;28;20409;-78
2022/03/05 00:44:22;;;;;;;25.33;15.03;;;;;;;2.34;58.54;100633.13;5033936;28;20845;-79
2022/03/05 00:46:47;;;;;;;27.13;15.50;;;;;;;2.32;58.18;100631.66;5033487;28;20438;-78
2022/03/05 00:49:12;;;;;;;25.87;15.47;;;;;;;2.26;58.41;100635.09;5033860;28;20395;-78
2022/03/05 00:51:38;;;;;;;23.13;14.93;;;;;;;2.12;58.04;100635.94;5032475;28;20747;-79
2022/03/05 00:54:03;;;;;;;23.33;15.67;;;;;;;2.02;59.06;100636.22;5065923;28;20502;-79
2022/03/05 00:56:28;;;;;;;24.75;15.02;;;;;;;2.02;58.50;100641.56;5030775;28;20866;-78
2022/03/05 00:58:54;;;;;;;26.10;16.93;;;;;;;1.91;58.77;100637.50;5033850;28;20395;-79
2022/03/05 01:01:19;;;;;;;24.80;15.63;;;;;;;1.86;58.81;100639.91;5032035;28;20407;-78
2022/03/05 01:03:44;;;;;;;25.95;15.18;;;;;;;1.82;59.08;100635.13;5031816;28;20850;-79
2022/03/05 01:06:10;;;;;;;26.87;15.53;;;;;;;1.72;59.34;100638.06;5033830;28;20396;-79
2022/03/05 01:08:35;;;;;;;24.97;16.33;;;;;;;1.72;59.51;100638.06;5033406;28;20422;-79
2022/03/05 01:11:01;;;;;;;26.67;15.80;;;;;;;1.75;59.52;100642.19;5033671;28;20467;-78
2022/03/05 01:13:26;;;;;;;22.92;15.32;;;;;;;1.81;59.33;100641.50;5029975;28;20488;-79
2022/03/05 01:15:51;;;;;;;25.40;15.73;;;;;;;1.78;59.46;100636.53;5033027;28;21299;-79
2022/03/05 01:18:16;;;;;;;22.90;14.83;;;;;;;1.77;58.88;100632.19;5033277;28;20856;-79
2022/03/05 01:20:42;;;;;;;26.00;15.53;;;;;;;1.75;58.86;100640.38;5033269;28;20388;-78
2022/03/05 01:23:07;;;;;;;24.70;14.65;;;;;;;1.72;59.32;100631.88;5030260;28;20403;-78
2022/03/05 01:25:32;;;;;;;28.33;17.70;;;;;;;1.63;59.25;100635.66;5033127;28;20453;-78
2022/03/05 01:27:58;;;;;;;28.50;18.77;;;;;;;1.66;59.33;100633.47;5032929;28;20427;-78
2022/03/05 01:30:23;;;;;;;29.52;19.13;;;;;;;1.63;58.89;100616.97;5031525;28;20411;-78
2022/03/05 01:32:48;;;;;;;24.77;16.20;;;;;;;1.60;59.02;100623.50;5031888;28;20407;-78
2022/03/05 01:35:13;;;;;;;27.93;15.90;;;;;;;1.53;59.12;100626.06;5032697;28;20950;-78
2022/03/05 01:37:39;;;;;;;25.27;15.87;;;;;;;1.49;59.48;100624.78;5031743;28;20410;-78
2022/03/05 01:40:07;;;;;;;24.03;15.30;;;;;;;1.50;59.35;100626.44;5032881;28;20391;-78
2022/03/05 01:42:32;;;;;;;25.93;15.37;;;;;;;1.48;58.98;100616.97;5031599;28;20414;-78
2022/03/05 01:44:57;;;;;;;23.80;14.93;;;;;;;1.47;59.72;100631.31;5032876;28;20399;-78
2022/03/05 01:47:23;;;;;;;24.63;15.27;;;;;;;1.50;59.36;100637.13;5029772;28;20455;-78
2022/03/05 01:49:48;;;;;;;26.60;16.63;;;;;;;1.46;59.12;100629.66;5060483;28;20408;-77
2022/03/05 01:52:13;;;;;;;24.83;15.47;;;;;;;1.53;59.29;100635.94;5030413;28;20414;-78
2022/03/05 01:54:40;;;;;;;22.90;15.73;;;;;;;1.52;58.85;100629.75;5063429;28;20442;-78
2022/03/05 01:57:05;;;;;;;24.10;15.93;;;;;;;1.48;59.36;100631.13;5032826;28;20437;-78
2022/03/05 01:59:31;;;;;;;23.42;15.15;;;;;;;1.46;59.01;100632.31;5032822;28;20803;-78
2022/03/05 02:01:57;;;;;;;26.27;15.90;;;;;;;1.42;58.75;100629.19;5030817;28;20413;-78
2022/03/05 02:04:22;;;;;;;25.40;15.33;;;;;;;1.43;58.70;100630.00;5025704;28;20490;-78
2022/03/05 02:06:47;;;;;;;22.90;14.87;;;;;;;1.50;58.92;100628.28;5062784;28;20407;-78
2022/03/05 02:09:13;;;;;;;23.23;15.02;;;;;;;1.49;58.73;100624.78;5047845;28;20946;-78
2022/03/05 02:11:39;;;;;;;23.13;15.25;;;;;;;1.45;58.95;100627.97;5029972;28;20411;-78
2022/03/05 02:14:05;;;;;;;26.25;16.02;;;;;;;1.48;58.03;100628.44;5032106;28;20434;-78
2022/03/05 02:16:30;;;;;;;25.63;16.33;;;;;;;1.47;58.10;100626.81;5031754;28;20453;-78
2022/03/05 02:18:55;;;;;;;21.90;14.73;;;;;;;1.50;58.48;100618.44;5032244;28;20391;-78
2022/03/05 02:21:26;;;;;;;21.48;14.55;;;;;;;1.43;58.44;100622.00;5027991;28;20406;-78
2022/03/05 02:23:51;;;;;;;21.30;14.82;;;;;;;1.43;58.96;100622.00;5029865;28;20413;-78
2022/03/05 02:26:17;;;;;;;21.50;14.30;;;;;;;1.47;58.00;100621.47;5031890;28;20403;-78
2022/03/05 02:28:42;;;;;;;21.57;14.20;;;;;;;1.53;58.17;100620.72;5029623;28;20502;-78
2022/03/05 02:31:08;;;;;;;22.43;15.13;;;;;;;1.56;57.98;100620.38;5030658;28;20399;-78
2022/03/05 02:33:34;;;;;;;23.07;15.07;;;;;;;1.55;58.24;100629.38;5031831;28;20396;-79
2022/03/05 02:36:00;;;;;;;19.50;14.02;;;;;;;1.51;57.86;100628.13;5031956;28;20391;-78
2022/03/05 02:38:25;;;;;;;20.08;14.40;;;;;;;1.52;57.91;100621.75;5030515;28;20403;-78
2022/03/05 02:40:51;;;;;;;23.73;14.40;;;;;;;1.58;58.10;100622.03;5030301;28;20886;-78
2022/03/05 02:43:17;;;;;;;21.52;14.57;;;;;;;1.63;57.83;100628.47;5031717;28;20477;-78
2022/03/05 02:45:43;;;;;;;19.35;12.85;;;;;;;1.60;57.85;100630.69;5031757;28;20431;-78
2022/03/05 02:48:13;;;;;;;22.47;14.23;;;;;;;1.56;58.57;100624.88;5063491;28;20902;-79
2022/03/05 02:50:40;;;;;;;20.38;13.95;;;;;;;1.58;58.94;100634.34;5061572;28;20415;-78
2022/03/05 02:53:05;;;;;;;20.00;13.75;;;;;;;1.55;58.67;100626.72;5030670;28;20774;-78
2022/03/05 02:55:31;;;;;;;21.10;14.07;;;;;;;1.55;58.42;100623.22;5029905;28;20399;-78
2022/03/05 02:57:57;;;;;;;22.08;13.77;;;;;;;1.53;58.43;100631.41;5031924;28;20720;-77
2022/03/05 03:00:22;;;;;;;21.07;13.53;;;;;;;1.47;58.27;100636.66;5027617;28;20437;-79
2022/03/05 03:02:49;;;;;;;23.10;14.37;;;;;;;1.45;59.00;100627.97;5030374;28;20395;-78
2022/03/05 03:05:16;;;;;;;21.08;13.93;;;;;;;1.48;59.03;100630.31;5030909;28;20395;-78
2022/03/05 03:07:42;;;;;;;20.15;13.38;;;;;;;1.49;59.73;100634.63;5031529;28;20451;-78
2022/03/05 03:10:08;;;;;;;21.27;13.90;;;;;;;1.48;59.73;100635.66;5026654;28;20411;-78
2022/03/05 03:12:34;;;;;;;20.95;14.25;;;;;;;1.44;59.29;100640.53;5027965;28;20443;-78
2022/03/05 03:14:59;;;;;;;20.47;14.53;;;;;;;1.42;59.92;100641.69;5028663;28;20427;-78
2022/03/05 03:17:25;;;;;;;19.57;14.43;;;;;;;1.42;59.90;100631.84;5031189;28;20878;-78
2022/03/05 03:19:50;;;;;;;19.20;13.17;;;;;;;1.38;59.49;100640.44;5026063;28;20420;-79
2022/03/05 03:22:17;;;;;;;19.40;13.85;;;;;;;1.35;59.84;100636.25;5029922;28;20497;-78
2022/03/05 03:24:43;;;;;;;20.65;13.50;;;;;;;1.32;59.49;100631.28;5031439;28;20403;-78
2022/03/05 03:27:08;;;;;;;19.03;13.00;;;;;;;1.26;60.03;100633.84;5030856;28;20944;-78
2022/03/05 03:29:34;;;;;;;21.73;14.70;;;;;;;1.24;59.52;100642.03;5028420;28;20464;-78
2022/03/05 03:31:59;;;;;;;19.85;12.80;;;;;;;1.18;59.86;100639.25;5029655;28;20485;-78
2022/03/05 03:34:25;;;;;;;20.50;14.02;;;;;;;1.18;60.42;100637.44;5031372;28;20475;-78
2022/03/05 03:36:50;;;;;;;19.88;13.35;;;;;;;1.22;60.09;100638.69;5030922;28;20391;-78
2022/03/05 03:39:16;;;;;;;22.43;14.57;;;;;;;1.27;59.51;100639.00;5029907;28;20929;-78
2022/03/05 03:41:41;;;;;;;18.52;13.35;;;;;;;1.30;60.41;100645.81;5062910;28;20413;-77
2022/03/05 03:44:07;;;;;;;21.48;13.75;;;;;;;1.27;60.20;100636.34;5031283;28;20387;-78
2022/03/05 03:46:32;;;;;;;19.53;14.30;;;;;;;1.16;60.45;100651.94;5028916;28;20411;-78
2022/03/05 03:48:57;;;;;;;22.77;14.27;;;;;;;1.14;60.63;100656.63;5029758;28;20431;-78
2022/03/05 03:51:23;;;;;;;19.58;13.55;;;;;;;1.17;60.90;100643.78;5030958;28;20453;-78
2022/03/05 03:53:48;;;;;;;20.07;13.70;;;;;;;1.17;60.81;100643.78;5031123;28;20407;-78
2022/03/05 03:56:13;;;;;;;22.70;14.50;;;;;;;1.19;60.71;100643.56;5031113;28;20505;-78
2022/03/05 03:58:39;;;;;;;20.90;14.10;;;;;;;1.19;60.32;100654.25;5027433;28;20555;-78
2022/03/05 04:01:04;;;;;;;20.70;13.20;;;;;;;1.18;60.44;100653.44;5063029;28;20417;-78
2022/03/05 04:03:30;;;;;;;20.80;14.00;;;;;;;1.09;60.68;100651.81;5030180;28;20585;-78
2022/03/05 04:05:55;;;;;;;22.07;13.27;;;;;;;1.11;60.57;100652.50;5030623;28;20402;-78
2022/03/05 04:11:04;;;;;;;21.43;13.93;;;;;;;1.12;60.71;100653.34;5031251;28;20826;-78
2022/03/05 04:13:30;;;;;;;18.50;13.20;;;;;;;0.99;60.46;100662.75;5030284;28;20399;-78
2022/03/05 04:15:56;;;;;;;19.20;14.07;;;;;;;0.89;60.69;100658.69;5030469;28;20418;-78
2022/03/05 04:18:21;;;;;;;21.07;14.50;;;;;;;0.75;60.84;100654.09;5031293;28;20422;-78
2022/03/05 04:20:46;;;;;;;20.70;13.87;;;;;;;0.59;61.89;100663.03;5033089;28;20387;-79
2022/03/05 04:23:11;;;;;;;22.13;14.27;;;;;;;0.50;61.88;100670.22;5066330;28;20393;-78
2022/03/05 04:25:37;;;;;;;20.85;14.50;;;;;;;0.50;62.36;100662.22;5034425;28;20452;-78
2022/03/05 04:28:03;;;;;;;22.80;14.57;;;;;;;0.50;62.06;100677.38;5032537;28;20434;-78
2022/03/05 04:30:28;;;;;;;20.13;13.25;;;;;;;0.46;62.42;100676.09;5034663;28;20406;-78
2022/03/05 04:32:53;;;;;;;25.87;14.10;;;;;;;0.50;62.50;100667.56;5033300;28;20391;-78
2022/03/05 04:35:19;;;;;;;19.57;12.93;;;;;;;0.52;62.46;100678.06;5034193;28;20451;-78
2022/03/05 04:37:44;;;;;;;22.37;13.57;;;;;;;0.50;62.45;100672.06;5026439;28;20408;-78
2022/03/05 04:40:10;;;;;;;20.20;12.93;;;;;;;0.63;62.22;100682.16;5032260;28;20399;-78
2022/03/05 04:42:35;;;;;;;20.08;12.80;;;;;;;0.76;62.31;100682.44;5034174;28;20391;-78
2022/03/05 04:45:02;;;;;;;23.48;14.02;;;;;;;0.79;61.90;100685.56;5049336;28;20402;-78
2022/03/05 04:47:27;;;;;;;20.57;13.07;;;;;;;0.81;61.65;100690.72;5062532;28;20410;-78
2022/03/05 04:49:52;;;;;;;22.80;13.10;;;;;;;0.78;62.09;100688.41;5032412;28;20407;-79
2022/03/05 04:52:17;;;;;;;19.73;13.13;;;;;;;0.81;61.63;100694.22;5066003;28;20406;-78
2022/03/05 04:54:43;;;;;;;20.35;13.02;;;;;;;0.77;61.97;100692.91;5029223;28;20424;-78
2022/03/05 04:57:08;;;;;;;20.07;12.90;;;;;;;0.77;62.62;100697.41;5023438;28;20540;-78
2022/03/05 04:59:33;;;;;;;18.90;12.83;;;;;;;0.76;62.69;100695.78;5029245;28;20879;-78
2022/03/05 05:01:59;;;;;;;20.70;13.23;;;;;;;0.77;62.30;100695.59;5033560;28;20515;-78
2022/03/05 05:04:25;;;;;;;21.27;12.65;;;;;;;0.79;62.96;100693.56;5034038;28;20422;-78
2022/03/05 05:06:50;;;;;;;20.20;13.17;;;;;;;0.75;62.74;100699.44;5030421;28;20852;-79
2022/03/05 05:09:16;;;;;;;17.87;12.17;;;;;;;0.67;62.73;100700.31;5033735;28;20858;-78
2022/03/05 05:11:44;;;;;;;19.95;13.02;;;;;;;0.66;63.13;100701.31;5031019;28;20391;-78
2022/03/05 05:14:10;;;;;;;20.02;12.73;;;;;;;0.67;63.11;100697.63;5033724;28;20859;-79
2022/03/05 05:16:36;;;;;;;19.52;12.77;;;;;;;0.69;63.48;100710.81;5031311;28;20886;-78
2022/03/05 05:21:46;;;;;;;19.55;13.50;;;;;;;0.65;63.38;100709.50;5024920;28;20530;-78
2022/03/05 05:24:12;;;;;;;23.20;14.13;;;;;;;0.59;63.51;100711.03;5028014;28;20910;-78
2022/03/05 05:26:37;;;;;;;19.20;13.00;;;;;;;0.58;64.26;100709.38;5032111;28;20423;-78
2022/03/05 05:29:02;;;;;;;22.07;13.73;;;;;;;0.60;63.40;100706.50;5032909;28;20414;-79
2022/03/05 05:31:28;;;;;;;19.67;13.23;;;;;;;0.46;63.70;100703.56;5033194;28;21038;-79
2022/03/05 05:33:53;;;;;;;24.67;14.30;;;;;;;0.49;64.79;100699.75;5030722;28;20402;-78
2022/03/05 05:36:19;;;;;;;21.77;13.50;;;;;;;0.49;64.10;100708.56;5034494;28;20399;-78
2022/03/05 05:38:44;;;;;;;20.83;14.07;;;;;;;0.52;64.45;100720.72;5032146;28;20778;-79
2022/03/05 05:41:12;;;;;;;18.30;13.27;;;;;;;0.55;64.30;100712.38;5033092;28;20391;-78
2022/03/05 05:43:38;;;;;;;23.53;13.93;;;;;;;0.55;64.69;100722.22;5034921;28;20407;-79
2022/03/05 05:46:03;;;;;;;24.38;14.40;;;;;;;0.53;64.23;100725.88;5046542;28;20395;-79
2022/03/05 05:48:28;;;;;;;19.38;12.75;;;;;;;0.51;64.25;100729.72;5035745;28;20914;-79
2022/03/05 05:50:54;;;;;;;21.93;13.40;;;;;;;0.50;64.68;100723.56;5033072;28;20470;-78
2022/03/05 05:53:19;;;;;;;22.13;13.70;;;;;;;0.50;64.65;100725.38;5045289;28;20411;-78
2022/03/05 05:55:44;;;;;;;20.70;13.30;;;;;;;0.49;64.75;100729.88;5032892;28;20399;-79
2022/03/05 05:58:10;;;;;;;21.35;13.32;;;;;;;0.50;64.74;100722.72;5033884;28;20410;-78
2022/03/05 06:00:35;;;;;;;18.03;13.10;;;;;;;0.49;64.39;100731.75;5032666;28;20490;-78
2022/03/05 06:03:00;;;;;;;19.37;12.93;;;;;;;0.36;64.43;100728.78;5028608;28;20395;-78
2022/03/05 06:05:26;;;;;;;21.23;13.33;;;;;;;0.29;64.76;100731.31;5037970;28;20403;-78
2022/03/05 06:07:51;;;;;;;18.47;12.73;;;;;;;0.18;65.48;100737.00;5026756;28;20521;-78
2022/03/05 06:10:16;;;;;;;20.43;13.47;;;;;;;0.23;64.83;100731.19;5031439;28;20399;-79
2022/03/05 06:12:41;;;;;;;21.53;12.87;;;;;;;0.33;65.04;100740.63;5032638;28;20394;-78
2022/03/05 06:15:09;;;;;;;19.30;13.33;;;;;;;0.42;64.40;100742.28;5027373;28;20439;-78
2022/03/05 06:17:35;;;;;;;19.13;13.18;;;;;;;0.46;64.88;100737.44;5031024;28;20876;-79
2022/03/05 06:20:00;;;;;;;21.13;13.03;;;;;;;0.51;63.99;100745.72;5027465;28;20471;-79
2022/03/05 06:22:26;;;;;;;22.13;13.27;;;;;;;0.55;63.97;100751.53;5025115;28;20454;-79
2022/03/05 06:24:51;;;;;;;20.10;13.60;;;;;;;0.51;63.83;100743.06;5059021;28;20442;-79
2022/03/05 06:27:16;;;;;;;19.17;13.63;;;;;;;0.53;64.48;100747.22;5033406;28;20421;-79
2022/03/05 06:29:42;;;;;;;24.03;13.87;;;;;;;0.55;64.56;100752.38;5027656;28;20414;-79
2022/03/05 06:32:07;;;;;;;20.23;13.50;;;;;;;0.52;64.40;100742.06;5027304;28;20502;-79
2022/03/05 06:34:33;;;;;;;22.63;14.35;;;;;;;0.56;64.52;100751.34;5033665;28;20802;-79
2022/03/05 06:37:00;;;;;;;23.27;14.90;;;;;;;0.60;64.56;100746.50;5025373;28;20415;-79
2022/03/05 06:39:25;;;;;;;19.80;13.18;;;;;;;0.59;64.46;100756.38;5065414;28;20395;-79
2022/03/05 06:41:51;;;;;;;21.97;14.33;;;;;;;0.62;64.84;100753.34;5025464;28;20449;-80
2022/03/05 06:44:16;;;;;;;24.77;15.07;;;;;;;0.64;64.18;100751.34;5052763;28;21017;-80
2022/03/05 06:46:41;;;;;;;29.90;19.60;;;;;;;0.49;63.93;100751.22;5027091;28;20407;-81
2022/03/05 06:49:07;;;;;;;24.17;17.50;;;;;;;0.51;63.76;100765.22;5031136;28;20434;-78
2022/03/05 06:51:32;;;;;;;27.17;17.73;;;;;;;0.45;63.92;100765.09;5033541;28;20446;-79
2022/03/05 06:53:57;;;;;;;22.10;14.93;;;;;;;0.45;64.30;100768.59;5044127;28;21391;-78
2022/03/05 06:56:23;;;;;;;19.38;14.15;;;;;;;0.51;63.82;100762.56;5039994;28;20409;-78
2022/03/05 06:58:48;;;;;;;21.95;14.88;;;;;;;0.67;63.24;100779.47;5040890;28;20413;-78
2022/03/05 07:01:13;;;;;;;17.20;12.23;;;;;;;0.66;63.34;100778.66;5043940;28;20398;-78
2022/03/05 07:03:39;;;;;;;20.07;14.10;;;;;;;0.73;63.38;100778.78;5037222;28;20498;-79
2022/03/05 07:06:05;;;;;;;24.17;13.90;;;;;;;0.76;63.37;100773.94;5039335;28;20902;-80
2022/03/05 07:08:30;;;;;;;21.40;13.65;;;;;;;0.85;63.21;100786.25;5042853;28;20424;-79
2022/03/05 07:10:55;;;;;;;27.57;15.63;;;;;;;0.91;62.74;100784.72;5042079;28;20397;-79
2022/03/05 07:13:20;;;;;;;24.70;15.43;;;;;;;0.94;63.27;100789.72;5037027;28;20766;-78
2022/03/05 07:15:47;;;;;;;21.47;13.87;;;;;;;0.96;63.12;100780.50;5043340;28;20406;-78
2022/03/05 07:18:12;;;;;;;24.15;14.35;;;;;;;0.96;63.35;100782.34;5042572;28;20448;-78
2022/03/05 07:20:37;;;;;;;20.65;13.45;;;;;;;1.05;62.10;100778.66;5043570;28;20900;-82
2022/03/05 07:23:04;;;;;;;22.37;15.00;;;;;;;1.20;62.55;100789.38;5039315;28;20421;-80
2022/03/05 07:25:36;;;;;;;19.92;13.80;;;;;;;1.40;61.35;100793.25;5035362;28;20498;-78
2022/03/05 07:28:02;;;;;;;19.33;13.00;;;;;;;1.55;60.24;100789.63;5024916;28;21154;-80
2022/03/05 07:30:27;;;;;;;20.50;12.80;;;;;;;1.72;59.83;100792.19;5037826;28;20407;-78
2022/03/05 07:32:53;;;;;;;20.83;12.77;;;;;;;1.90;59.38;100793.53;5046441;28;20915;-79
2022/03/05 07:35:18;;;;;;;17.67;12.50;;;;;;;1.95;58.41;100784.97;5031005;28;20468;-79
2022/03/05 07:37:43;;;;;;;19.33;13.63;;;;;;;1.84;59.23;100794.28;5030321;28;20407;-80
2022/03/05 07:40:09;;;;;;;16.57;12.30;;;;;;;1.89;58.84;100789.19;5045291;28;20403;-79
2022/03/05 07:42:34;;;;;;;20.43;12.93;;;;;;;2.14;58.14;100786.31;5066507;28;20884;-79
2022/03/05 07:45:00;;;;;;;19.13;12.27;;;;;;;2.43;57.23;100789.00;5028344;28;20418;-79
2022/03/05 07:47:25;;;;;;;17.13;12.10;;;;;;;2.81;55.77;100787.88;5035417;28;20418;-79
2022/03/05 07:49:50;;;;;;;17.13;11.52;;;;;;;3.06;54.99;100788.41;5033721;28;20752;-80
2022/03/05 07:52:16;;;;;;;19.97;13.27;;;;;;;3.13;54.48;100786.59;5030379;28;22334;-79
2022/03/05 07:54:41;;;;;;;19.27;13.23;;;;;;;3.02;54.39;100797.81;5032405;28;20402;-80
2022/03/05 07:57:06;;;;;;;19.13;13.32;;;;;;;2.87;55.50;100800.50;5035072;28;20490;-79
2022/03/05 07:59:31;;;;;;;17.53;12.40;;;;;;;2.77;55.54;100799.97;5045396;28;20411;-80
2022/03/05 08:01:57;;;;;;;17.63;12.07;;;;;;;2.72;55.68;100806.91;5029664;28;20453;-79
2022/03/05 08:04:22;;;;;;;19.97;12.90;;;;;;;2.75;55.05;100799.31;5026583;28;20917;-79
2022/03/05 08:06:47;;;;;;;19.43;13.20;;;;;;;2.91;54.70;100812.50;5026464;28;20494;-79
2022/03/05 08:09:13;;;;;;;18.90;12.90;;;;;;;3.01;54.12;100809.53;5034552;28;20399;-79
2022/03/05 08:11:38;;;;;;;16.52;11.85;;;;;;;3.04;53.83;100804.63;5029985;28;20407;-80
2022/03/05 08:14:03;;;;;;;18.87;12.73;;;;;;;3.06;53.47;100815.97;5059077;28;20415;-80
2022/03/05 08:16:31;;;;;;;15.57;11.37;;;;;;;3.12;53.25;100809.91;5031824;28;21015;-80
2022/03/05 08:18:57;;;;;;;17.98;12.80;;;;;;;3.18;53.34;100819.03;5034339;28;20410;-80
2022/03/05 08:21:22;;;;;;;18.90;12.40;;;;;;;3.28;52.99;100816.88;5033336;28;20400;-80
2022/03/05 08:23:47;;;;;;;18.20;12.77;;;;;;;3.34;52.63;100812.59;5031243;28;20415;-79
2022/03/05 08:26:13;;;;;;;16.80;12.23;;;;;;;3.42;52.20;100816.00;5034159;28;20402;-80
2022/03/05 08:28:40;;;;;;;19.73;12.10;;;;;;;3.55;51.85;100807.28;5030622;28;20426;-80
2022/03/05 08:31:06;;;;;;;20.38;13.13;;;;;;;3.61;52.37;100804.66;5034584;28;20402;-79
2022/03/05 08:33:31;;;;;;;18.87;12.30;;;;;;;3.64;51.12;100814.16;5034173;28;20403;-80
2022/03/05 08:35:56;;;;;;;18.23;11.70;;;;;;;3.72;50.96;100806.00;5047713;28;20410;-80
2022/03/05 08:38:22;;;;;;;18.50;13.63;;;;;;;3.87;51.50;100805.91;5047515;28;20415;-80
2022/03/05 08:40:47;;;;;;;18.33;13.63;;;;;;;3.98;50.86;100802.72;5033876;28;20405;-80
2022/03/05 08:43:13;;;;;;;18.17;12.43;;;;;;;4.12;50.16;100799.94;5034120;28;20409;-80
2022/03/05 08:45:39;;;;;;;19.23;13.57;;;;;;;4.24;50.10;100799.41;5033620;28;20537;-80
2022/03/05 08:48:04;;;;;;;18.40;13.27;;;;;;;4.30;49.60;100802.16;5025332;28;20778;-80
2022/03/05 08:50:30;;;;;;;18.10;13.27;;;;;;;4.39;49.48;100800.13;5032735;28;20415;-80
2022/03/05 08:52:55;;;;;;;19.00;13.67;;;;;;;4.59;49.38;100799.22;5025865;28;20479;-80
2022/03/05 08:55:20;;;;;;;18.03;13.23;;;;;;;4.77;48.60;100797.88;5029668;28;20409;-81
2022/03/05 08:57:46;;;;;;;20.50;14.33;;;;;;;4.92;48.27;100794.03;5032813;28;20395;-80
2022/03/05 09:00:14;;;;;;;21.17;15.00;;;;;;;5.29;47.54;100787.34;5028758;28;20783;-81
2022/03/05 09:02:39;;;;;;;19.70;14.40;;;;;;;5.59;46.28;100790.53;5033084;28;20445;-80
2022/03/05 09:05:05;;;;;;;20.77;14.13;;;;;;;6.03;45.46;100795.31;5047192;28;20402;-80
2022/03/05 09:07:30;;;;;;;21.87;14.27;;;;;;;6.26;44.31;100790.34;5065445;28;20834;-80
2022/03/05 09:09:56;;;;;;;19.93;14.43;;;;;;;6.22;43.97;100789.94;5028894;28;20754;-80
2022/03/05 09:12:22;;;;;;;21.30;13.97;;;;;;;6.08;44.84;100792.88;5063572;28;20434;-80
2022/03/05 09:14:48;;;;;;;21.45;14.80;;;;;;;6.06;44.84;100798.44;5033671;28;20410;-80
2022/03/05 09:17:14;;;;;;;19.58;14.20;;;;;;;6.45;43.90;100791.38;5030677;28;20905;-80
2022/03/05 09:19:40;;;;;;;19.38;14.07;;;;;;;6.62;43.75;100785.31;5033331;28;20401;-80
2022/03/05 09:22:07;;;;;;;19.30;13.83;;;;;;;6.54;44.11;100785.56;5031088;28;20929;-81
2022/03/05 09:24:32;;;;;;;19.30;13.80;;;;;;;6.38;44.30;100787.88;5048098;28;20399;-80
2022/03/05 09:26:58;;;;;;;18.85;14.50;;;;;;;6.74;43.51;100772.88;5031255;28;20767;-81
2022/03/05 09:29:24;;;;;;;21.13;14.02;;;;;;;8.57;40.21;100779.94;5023946;28;20467;-81
2022/03/05 09:31:49;;;;;;;21.70;14.45;;;;;;;9.55;36.33;100775.97;5032768;28;20758;-80
2022/03/05 09:34:14;;;;;;;18.13;13.13;;;;;;;8.23;39.05;100784.00;5033394;28;20496;-81
2022/03/05 09:36:40;;;;;;;18.50;13.27;;;;;;;7.93;39.76;100774.91;5030641;28;20485;-81
2022/03/05 09:39:05;;;;;;;17.47;12.40;;;;;;;8.19;39.75;100780.91;5032618;28;20478;-81
2022/03/05 09:41:30;;;;;;;17.40;12.03;;;;;;;8.28;39.58;100782.31;5031420;28;20413;-81
2022/03/05 09:43:56;;;;;;;13.93;11.07;;;;;;;9.09;37.67;100786.63;5030175;28;20910;-81
2022/03/05 09:46:22;;;;;;;15.23;12.13;;;;;;;10.47;34.39;100779.94;5032834;28;20395;-81
2022/03/05 09:48:56;;;;;;;18.30;12.35;;;;;;;11.44;33.22;100776.28;5032335;28;20501;-82
2022/03/05 09:51:23;;;;;;;16.80;12.02;;;;;;;12.15;31.38;100774.81;5032170;28;20419;-81
2022/03/05 09:53:53;;;;;;;13.87;11.47;;;;;;;12.31;30.81;100776.72;5031692;28;20764;-81
2022/03/05 09:56:18;;;;;;;14.90;11.48;;;;;;;12.18;31.15;100781.66;5027522;28;20422;-81
2022/03/05 09:58:44;;;;;;;12.90;11.50;;;;;;;11.88;31.07;100779.28;5031137;28;20770;-81
2022/03/05 10:01:09;;;;;;;16.63;13.27;;;;;;;11.97;31.81;100766.91;5030984;28;20407;-80
2022/03/05 10:03:48;;;;;;;15.43;12.20;;;;;;;11.15;32.84;100782.75;5032443;28;20410;-80
2022/03/05 10:06:22;;;;;;;14.77;11.68;;;;;;;11.28;32.74;100774.34;5029113;28;20801;-78
2022/03/05 10:08:51;;;;;;;16.37;12.53;;;;;;;12.26;31.46;100775.81;5023983;28;20421;-79
2022/03/05 10:11:17;;;;;;;15.43;12.27;;;;;;;13.71;29.56;100767.88;5032619;28;20430;-79
2022/03/05 10:13:42;;;;;;;15.90;12.52;;;;;;;15.69;27.02;100759.75;5061517;28;20442;-81
2022/03/05 10:16:26;;;;;;;14.73;11.43;;;;;;;16.39;24.95;100760.84;5032080;28;20419;-79
2022/03/05 10:18:52;;;;;;;14.40;11.60;;;;;;;17.77;23.64;100757.31;5024511;28;20402;-79
2022/03/05 10:21:17;;;;;;;14.90;11.30;;;;;;;18.33;22.08;100766.72;5029212;28;20437;-80
2022/03/05 10:23:47;;;;;;;16.87;11.43;;;;;;;17.98;22.18;100761.56;5058173;28;20925;-80
2022/03/05 10:26:15;;;;;;;13.85;9.98;;;;;;;18.60;20.74;100764.28;5027280;28;20397;-78
2022/03/05 10:28:41;;;;;;;12.32;9.90;;;;;;;18.90;19.96;100765.06;5031890;28;20969;-78
2022/03/05 10:31:09;;;;;;;14.40;10.47;;;;;;;20.20;19.52;100767.03;5037459;28;20517;-77
2022/03/05 10:33:45;;;;;;;10.90;9.77;;;;;;;21.23;18.59;100767.63;5030191;28;20426;-79
2022/03/05 10:36:18;;;;;;;10.52;9.27;;;;;;;20.82;18.00;100760.13;5027257;28;20399;-79
2022/03/05 10:38:48;;;;;;;10.27;9.27;;;;;;;21.13;18.26;100749.34;5032107;28;20401;-80
2022/03/05 10:41:17;;;;;;;10.17;9.10;;;;;;;21.56;17.31;100761.63;5031306;28;20818;-80
2022/03/05 10:43:44;;;;;;;16.15;8.98;;;;;;;20.46;17.94;100757.25;5031882;28;20402;-80
2022/03/05 10:46:09;;;;;;;10.90;8.00;;;;;;;20.14;17.57;100760.81;5031428;28;20491;-80
2022/03/05 10:48:40;;;;;;;15.23;9.20;;;;;;;19.72;17.93;100760.97;5042459;28;20490;-79
2022/03/05 10:51:11;;;;;;;10.73;8.77;;;;;;;19.96;18.04;100750.66;5027872;28;20411;-79
2022/03/05 10:53:41;;;;;;;11.15;8.35;;;;;;;20.22;17.32;100753.78;5029445;28;20399;-79
2022/03/05 10:56:21;;;;;;;11.75;8.30;;;;;;;19.55;17.51;100753.22;5028842;28;20399;-80
2022/03/05 10:59:04;;;;;;;8.20;7.45;;;;;;;19.12;18.36;100746.09;5046618;28;20886;-80
2022/03/05 11:01:31;;;;;;;10.63;6.93;;;;;;;18.90;18.65;100749.38;5029094;28;20947;-79
2022/03/05 11:03:57;;;;;;;8.65;7.72;;;;;;;18.84;19.11;100741.50;5063247;28;20682;-79
2022/03/05 11:06:23;;;;;;;9.15;8.20;;;;;;;19.20;18.51;100741.88;5035957;28;20460;-79
2022/03/05 11:08:50;;;;;;;10.00;7.37;;;;;;;18.33;19.03;100743.94;5031442;28;20540;-79
2022/03/05 11:11:16;;;;;;;10.30;7.40;;;;;;;16.51;20.42;100742.22;5030730;28;20751;-79
2022/03/05 11:13:42;;;;;;;8.48;7.55;;;;;;;15.82;21.16;100733.81;5030836;28;20395;-79
2022/03/05 11:16:09;;;;;;;8.85;7.70;;;;;;;14.08;23.57;100742.59;5031206;28;20411;-79